Terminal Aerodrome Forecast
Issued by NWS

Home | Current Version | Previous Version | Text Only | Print | Product List | Glossary On
Versions: 1 2 3 4 5 6 7 8 9 10 11 12 13
000
FTUS44 KTSA 022337
TAFMLC
TAF
KMLC 022337Z 0300/0324 05004KT P6SM BKN060
     FM030600 06004KT P6SM VCSH BKN050
     FM030800 05004KT 6SM -RA OVC035
      TEMPO 0311/0315 4SM -RA BR BKN025
     FM031500 07008KT 4SM -RA BKN012
      TEMPO 0315/0318 2SM -RA BR BKN007
     FM031800 08004KT 2SM -RA BR BKN007=

USA.gov is the U.S. government's official web portal to all federal, state and local government web resources and services.